createdAt,value
2024-04-19T00:00:18.230Z,1.000000
2024-04-19T00:05:18.202Z,2.000000
2024-04-19T00:10:18.421Z,1.000000
2024-04-19T00:15:24.502Z,1.000000
2024-04-19T00:20:18.275Z,3.000000
2024-04-19T00:25:18.179Z,2.000000
2024-04-19T00:30:24.453Z,1.000000
2024-04-19T00:35:24.513Z,0.000000
2024-04-19T00:40:18.285Z,1.000000
2024-04-19T00:45:16.366Z,0.000000
2024-04-19T00:50:16.338Z,1.000000
2024-04-19T00:55:24.629Z,0.000000
2024-04-19T01:00:18.361Z,2.000000
2024-04-19T01:05:24.502Z,3.000000
2024-04-19T01:10:18.351Z,6.000000
2024-04-19T01:15:24.566Z,5.000000
2024-04-19T01:20:24.630Z,3.000000
2024-04-19T01:25:24.511Z,2.000000
2024-04-19T01:30:24.503Z,1.000000
2024-04-19T01:35:24.629Z,0.000000
2024-04-19T01:40:16.409Z,0.000000
2024-04-19T01:45:24.654Z,0.000000
2024-04-19T01:50:18.455Z,0.000000
2024-04-19T01:55:24.597Z,0.000000
2024-04-19T02:00:24.697Z,1.000000
2024-04-19T02:05:24.675Z,1.000000
2024-04-19T02:10:24.714Z,0.000000
2024-04-19T02:15:24.549Z,0.000000
2024-04-19T02:20:18.532Z,0.000000
2024-04-19T02:25:18.455Z,0.000000
2024-04-19T02:30:16.532Z,1.000000
2024-04-19T02:35:16.547Z,2.000000
2024-04-19T02:40:18.704Z,1.000000
2024-04-19T02:45:24.734Z,0.000000
2024-04-19T02:50:24.714Z,0.000000
2024-04-19T02:55:18.548Z,0.000000
2024-04-19T03:00:18.437Z,0.000000
2024-04-19T03:05:18.499Z,0.000000
2024-04-19T03:10:24.808Z,0.000000
2024-04-19T03:15:24.707Z,0.000000
2024-04-19T03:20:18.475Z,0.000000
2024-04-19T03:25:16.606Z,0.000000
2024-04-19T03:30:16.533Z,0.000000
2024-04-19T03:35:24.800Z,1.000000
2024-04-19T03:40:24.830Z,1.000000
2024-04-19T03:45:24.772Z,0.000000
2024-04-19T03:50:18.601Z,0.000000
2024-04-19T03:55:24.828Z,0.000000
2024-04-19T04:00:17.909Z,1.000000
2024-04-19T04:05:24.183Z,0.000000
2024-04-19T04:10:17.921Z,0.000000
2024-04-19T04:15:24.057Z,0.000000
2024-04-19T04:20:17.933Z,1.000000
2024-04-19T04:25:24.323Z,1.000000
2024-04-19T04:30:24.191Z,1.000000
2024-04-19T04:35:15.938Z,1.000000
2024-04-19T04:40:16.131Z,2.000000
2024-04-19T04:45:17.896Z,0.000000
2024-04-19T04:50:24.373Z,0.000000
2024-04-19T04:55:17.917Z,0.000000
2024-04-19T05:00:24.074Z,0.000000
2024-04-19T05:05:24.144Z,0.000000
2024-04-19T05:10:24.270Z,0.000000
2024-04-19T05:15:17.966Z,0.000000
2024-04-19T05:20:18.041Z,0.000000
2024-04-19T05:25:15.989Z,1.000000
2024-04-19T05:30:16.095Z,0.000000
2024-04-19T05:35:24.186Z,0.000000
2024-04-19T05:40:24.228Z,0.000000
2024-04-19T05:45:24.265Z,0.000000
2024-04-19T05:50:24.225Z,0.000000
2024-04-19T05:55:24.322Z,0.000000
2024-04-19T06:00:24.242Z,0.000000
2024-04-19T06:05:24.255Z,0.000000
2024-04-19T06:10:18.033Z,0.000000
2024-04-19T06:15:24.353Z,0.000000
2024-04-19T06:20:16.049Z,0.000000
2024-04-19T06:25:16.111Z,0.000000
2024-04-19T06:30:24.315Z,0.000000
2024-04-19T06:35:24.226Z,0.000000
2024-04-19T06:40:24.404Z,0.000000
2024-04-19T06:45:24.347Z,0.000000
2024-04-19T06:50:18.104Z,0.000000
2024-04-19T06:55:18.111Z,0.000000
2024-04-19T07:00:41.418Z,0.000000
2024-04-19T07:05:24.386Z,0.000000
2024-04-19T07:10:18.020Z,0.000000
2024-04-19T07:15:16.162Z,0.000000
2024-04-19T07:20:18.194Z,0.000000
2024-04-19T07:25:24.360Z,0.000000
2024-04-19T07:30:18.218Z,0.000000
2024-04-19T07:35:24.438Z,0.000000
2024-04-19T07:40:18.337Z,0.000000
2024-04-19T07:45:24.470Z,0.000000
2024-04-19T07:50:18.276Z,0.000000
2024-04-19T07:55:24.487Z,1.000000
2024-04-19T08:00:24.434Z,0.000000
2024-04-19T08:05:16.362Z,0.000000
2024-04-19T08:10:16.124Z,0.000000
2024-04-19T08:15:18.429Z,0.000000
2024-04-19T08:20:24.542Z,0.000000
2024-04-19T08:25:24.457Z,0.000000
2024-04-19T08:30:18.333Z,0.000000
2024-04-19T08:35:24.564Z,0.000000
2024-04-19T08:40:24.547Z,0.000000
2024-04-19T08:45:24.825Z,1.000000
2024-04-19T08:50:24.573Z,1.000000
2024-04-19T08:55:18.306Z,0.000000
2024-04-19T09:00:18.105Z,0.000000
2024-04-19T09:05:16.450Z,0.000000
2024-04-19T09:10:24.594Z,0.000000
2024-04-19T09:15:18.313Z,0.000000
2024-04-19T09:20:24.689Z,1.000000
2024-04-19T09:25:24.640Z,1.000000
2024-04-19T09:30:18.443Z,0.000000
2024-04-19T09:35:26.310Z,0.000000
2024-04-19T09:40:25.700Z,0.000000
2024-04-19T09:45:18.441Z,0.000000
2024-04-19T09:50:24.610Z,0.000000
2024-04-19T09:55:16.492Z,0.000000
2024-04-19T10:00:26.180Z,0.000000
2024-04-19T10:05:18.475Z,0.000000
2024-04-19T10:10:24.621Z,0.000000
2024-04-19T10:15:24.725Z,0.000000
2024-04-19T10:20:24.720Z,0.000000
2024-04-19T10:25:18.629Z,0.000000
2024-04-19T10:30:30.561Z,0.000000
2024-04-19T10:35:24.747Z,0.000000
2024-04-19T10:40:18.575Z,0.000000
2024-04-19T10:45:16.609Z,0.000000
2024-04-19T10:50:16.455Z,0.000000
2024-04-19T10:55:24.896Z,0.000000
2024-04-19T11:00:18.633Z,0.000000
2024-04-19T11:05:24.808Z,0.000000
2024-04-19T11:10:18.569Z,0.000000
2024-04-19T11:15:24.870Z,0.000000
2024-04-19T11:20:18.611Z,0.000000
2024-04-19T11:25:18.655Z,0.000000
2024-04-19T11:30:18.662Z,0.000000
2024-04-19T11:35:18.840Z,0.000000
2024-04-19T11:40:16.750Z,0.000000
2024-04-19T11:45:16.689Z,0.000000
2024-04-19T11:50:18.605Z,0.000000
2024-04-19T11:55:18.672Z,0.000000
2024-04-19T12:00:25.143Z,1.000000
2024-04-19T12:05:18.791Z,0.000000
2024-04-19T12:10:25.196Z,0.000000
2024-04-19T12:16:05.066Z,0.000000
2024-04-19T12:16:40.169Z,0.000000
2024-04-19T12:20:29.293Z,1.000000
2024-04-19T12:25:19.234Z,1.000000
2024-04-19T12:30:18.873Z,1.000000
2024-04-19T12:35:16.787Z,1.000000
2024-04-19T12:40:24.967Z,0.000000
2024-04-19T12:45:18.932Z,1.000000
2024-04-19T12:50:18.786Z,1.000000
2024-04-19T12:55:18.849Z,1.000000
2024-04-19T13:00:25.093Z,2.000000
2024-04-19T13:05:25.024Z,2.000000
2024-04-19T13:10:24.986Z,2.000000
2024-04-19T13:15:18.693Z,2.000000
2024-04-19T13:20:24.965Z,2.000000
2024-04-19T13:25:16.824Z,3.000000
2024-04-19T13:30:16.804Z,2.000000
2024-04-19T13:35:18.830Z,2.000000
2024-04-19T13:40:18.786Z,3.000000
2024-04-19T13:45:18.844Z,2.000000
2024-04-19T13:50:18.828Z,4.000000
2024-04-19T13:55:25.110Z,4.000000
2024-04-19T14:00:18.963Z,3.000000
2024-04-19T14:05:18.850Z,7.000000
2024-04-19T14:10:25.271Z,3.000000
2024-04-19T14:15:25.161Z,3.000000
2024-04-19T14:20:17.027Z,6.000000
2024-04-19T14:25:16.978Z,5.000000
2024-04-19T14:30:18.948Z,5.000000
2024-04-19T14:35:19.084Z,4.000000
2024-04-19T14:40:18.864Z,4.000000
2024-04-19T14:45:25.228Z,4.000000
2024-04-19T14:50:25.122Z,3.000000
2024-04-19T14:55:25.128Z,3.000000
2024-04-19T15:00:18.926Z,6.000000
2024-04-19T15:05:25.096Z,5.000000
2024-04-19T15:10:17.038Z,5.000000
2024-04-19T15:15:16.941Z,4.000000
2024-04-19T15:20:25.361Z,4.000000
2024-04-19T15:25:25.242Z,5.000000
2024-04-19T15:30:18.988Z,5.000000
2024-04-19T15:35:25.204Z,2.000000
2024-04-19T15:40:19.042Z,5.000000
2024-04-19T15:45:25.192Z,9.000000
2024-04-19T15:50:19.003Z,8.000000
2024-04-19T15:55:18.958Z,6.000000
2024-04-19T16:00:25.380Z,5.000000
2024-04-19T16:05:17.038Z,6.000000
2024-04-19T16:10:16.977Z,4.000000
2024-04-19T16:15:19.076Z,6.000000
2024-04-19T16:20:25.276Z,9.000000
2024-04-19T16:25:19.170Z,5.000000
2024-04-19T16:30:25.288Z,9.000000
2024-04-19T16:35:19.019Z,6.000000
2024-04-19T16:40:25.363Z,7.000000
2024-04-19T16:45:19.030Z,7.000000
2024-04-19T16:50:19.103Z,6.000000
2024-04-19T16:55:19.078Z,8.000000
2024-04-19T17:00:17.289Z,9.000000
2024-04-19T17:05:19.281Z,11.000000
2024-04-19T17:10:19.124Z,8.000000
2024-04-19T17:15:19.136Z,7.000000
2024-04-19T17:20:19.194Z,7.000000
2024-04-19T17:25:19.114Z,7.000000
2024-04-19T17:30:19.304Z,8.000000
2024-04-19T17:35:19.062Z,7.000000
2024-04-19T17:40:25.416Z,5.000000
2024-04-19T17:45:25.565Z,8.000000
2024-04-19T17:50:17.229Z,7.000000
2024-04-19T17:55:17.248Z,8.000000
2024-04-19T18:00:25.486Z,10.000000
2024-04-19T18:05:18.255Z,4.000000
2024-04-19T18:10:16.210Z,8.000000
2024-04-19T18:15:16.169Z,5.000000
2024-04-19T18:20:24.556Z,5.000000
2024-04-19T18:25:24.423Z,5.000000
2024-04-19T18:30:24.425Z,8.000000
2024-04-19T18:35:24.354Z,10.000000
2024-04-19T18:40:24.492Z,8.000000
2024-04-19T18:45:24.481Z,7.000000
2024-04-19T18:50:24.479Z,8.000000
2024-04-19T18:55:18.276Z,7.000000
2024-04-19T19:00:24.528Z,4.000000
2024-04-19T19:05:16.371Z,9.000000
2024-04-19T19:10:16.622Z,4.000000
2024-04-19T19:15:24.518Z,6.000000
2024-04-19T19:20:24.382Z,7.000000
2024-04-19T19:25:24.541Z,6.000000
2024-04-19T19:30:24.520Z,7.000000
2024-04-19T19:35:24.465Z,9.000000
2024-04-19T19:40:18.305Z,8.000000
2024-04-19T19:45:24.615Z,7.000000
2024-04-19T19:50:24.511Z,6.000000
2024-04-19T19:55:16.364Z,6.000000
2024-04-19T20:00:16.375Z,8.000000
2024-04-19T20:05:24.675Z,8.000000
2024-04-19T20:10:24.607Z,8.000000
2024-04-19T20:15:21.704Z,7.000000
2024-04-19T20:20:24.594Z,10.000000
2024-04-19T20:25:18.367Z,8.000000
2024-04-19T20:30:18.283Z,7.000000
2024-04-19T20:35:18.319Z,9.000000
2024-04-19T20:40:24.567Z,7.000000
2024-04-19T20:45:24.649Z,8.000000
2024-04-19T20:50:16.485Z,14.000000
2024-04-19T20:55:16.323Z,8.000000
2024-04-19T21:00:18.438Z,9.000000
2024-04-19T21:05:18.411Z,7.000000
2024-04-19T21:10:18.394Z,7.000000
2024-04-19T21:15:24.765Z,11.000000
2024-04-19T21:20:18.518Z,7.000000
2024-04-19T21:25:18.501Z,6.000000
2024-04-19T21:30:24.834Z,10.000000
2024-04-19T21:35:24.626Z,8.000000
2024-04-19T21:40:18.488Z,7.000000
2024-04-19T21:45:16.463Z,9.000000
2024-04-19T21:50:24.733Z,4.000000
2024-04-19T21:55:18.482Z,8.000000
2024-04-19T22:00:24.778Z,5.000000
2024-04-19T22:05:18.523Z,4.000000
2024-04-19T22:10:24.600Z,3.000000
2024-04-19T22:15:18.518Z,4.000000
2024-04-19T22:20:18.764Z,7.000000
2024-04-19T22:25:24.756Z,4.000000
2024-04-19T22:30:18.535Z,4.000000
2024-04-19T22:35:16.528Z,8.000000
2024-04-19T22:40:16.488Z,7.000000
2024-04-19T22:45:24.765Z,7.000000
2024-04-19T22:50:24.746Z,3.000000
2024-04-19T22:55:24.753Z,5.000000
2024-04-19T23:00:24.831Z,3.000000
2024-04-19T23:05:18.605Z,7.000000
2024-04-19T23:10:24.897Z,8.000000
2024-04-19T23:15:18.672Z,5.000000
2024-04-19T23:20:24.874Z,7.000000
2024-04-19T23:25:24.789Z,6.000000
2024-04-19T23:30:16.616Z,7.000000
2024-04-19T23:35:16.651Z,7.000000
2024-04-19T23:40:24.862Z,7.000000
2024-04-19T23:45:24.780Z,3.000000
2024-04-19T23:50:18.694Z,6.000000
2024-04-19T23:55:18.709Z,5.000000
